Time;durP1;ratioP1;P1;durP2;ratioP2;P2;SDS_P1;SDS_P2;PMS_P1;PMS_P2;Temp;Humidity;BMP_temperature;BMP_pressure;BME280_temperature;BME280_humidity;BME280_pressure;Samples;Min_cycle;Max_cycle;Signal;HPM_P1;HPM_P2
2021/06/11 00:01:26;;;;;;;7.53;6.72;;;21.10;57.60;;;;;;5114782;28;20149;-80
2021/06/11 00:03:52;;;;;;;7.50;6.70;;;21.10;57.60;;;;;;5114833;28;20152;-80
2021/06/11 00:06:18;;;;;;;7.50;6.65;;;21.10;57.60;;;;;;5113465;28;20156;-80
2021/06/11 00:08:44;;;;;;;7.28;6.57;;;21.10;57.70;;;;;;5114680;28;20591;-80
2021/06/11 00:11:10;;;;;;;7.50;6.70;;;21.10;57.70;;;;;;5114519;28;20153;-81
2021/06/11 00:13:36;;;;;;;7.03;6.32;;;21.10;57.60;;;;;;5114367;28;20167;-79
2021/06/11 00:16:01;;;;;;;7.97;7.05;;;21.10;57.60;;;;;;5096342;28;20192;-81
2021/06/11 00:18:27;;;;;;;7.68;6.88;;;21.10;57.60;;;;;;5114382;28;20516;-80
2021/06/11 00:20:53;;;;;;;7.93;7.13;;;21.10;57.70;;;;;;5112361;28;20500;-79
2021/06/11 00:23:19;;;;;;;7.55;6.75;;;21.10;57.70;;;;;;5113252;28;20152;-80
2021/06/11 00:25:45;;;;;;;7.38;6.60;;;21.10;57.70;;;;;;5114472;28;20167;-80
2021/06/11 00:28:11;;;;;;;7.65;6.85;;;21.10;57.70;;;;;;5114470;28;20148;-80
2021/06/11 00:30:39;;;;;;;7.65;6.88;;;21.10;57.70;;;;;;5114441;28;20167;-80
2021/06/11 00:33:06;;;;;;;7.72;6.93;;;21.10;57.70;;;;;;5113113;28;20582;-80
2021/06/11 00:35:32;;;;;;;7.30;6.50;;;21.10;57.70;;;;;;5114152;28;20175;-80
2021/06/11 00:37:58;;;;;;;7.72;6.93;;;21.10;57.80;;;;;;5114380;28;20572;-80
2021/06/11 00:40:25;;;;;;;7.20;6.50;;;21.00;58.40;;;;;;5112813;28;20549;-81
2021/06/11 00:42:51;;;;;;;7.25;6.50;;;21.00;57.80;;;;;;5114087;28;20208;-80
2021/06/11 00:45:17;;;;;;;7.82;7.03;;;21.00;57.70;;;;;;5112755;28;20156;-80
2021/06/11 00:47:45;;;;;;;8.07;7.05;;;21.00;57.80;;;;;;5113842;28;20611;-80
2021/06/11 00:50:13;;;;;;;7.45;6.72;;;21.00;57.80;;;;;;5095113;28;20195;-80
2021/06/11 00:52:40;;;;;;;7.50;6.70;;;21.00;57.80;;;;;;5112503;28;20244;-80
2021/06/11 00:55:06;;;;;;;8.02;7.10;;;21.00;57.70;;;;;;5113894;28;20191;-80
2021/06/11 00:57:31;;;;;;;9.13;7.47;;;21.00;57.80;;;;;;5113680;28;20199;-80
2021/06/11 00:59:57;;;;;;;7.80;7.00;;;21.00;57.80;;;;;;5112552;28;20607;-80
2021/06/11 01:02:23;;;;;;;7.88;7.07;;;21.00;57.80;;;;;;5112621;28;20156;-80
2021/06/11 01:04:49;;;;;;;7.50;6.72;;;21.00;57.80;;;;;;5112546;28;20571;-80
2021/06/11 01:07:15;;;;;;;7.97;7.18;;;21.00;57.80;;;;;;5095869;28;20171;-81
2021/06/11 01:09:41;;;;;;;7.38;6.55;;;21.00;57.80;;;;;;5113949;28;20164;-80
2021/06/11 01:12:08;;;;;;;7.65;6.88;;;21.00;57.80;;;;;;5113810;28;20162;-80
2021/06/11 01:14:33;;;;;;;7.57;6.78;;;21.00;57.90;;;;;;5095837;28;20244;-80
2021/06/11 01:17:00;;;;;;;7.57;6.72;;;21.00;57.90;;;;;;5112331;28;20658;-79
2021/06/11 01:19:33;;;;;;;7.72;6.80;;;21.00;57.90;;;;;;5112358;28;20188;-80
2021/06/11 01:22:05;;;;;;;7.78;7.05;;;21.00;57.80;;;;;;5095172;28;20180;-81
2021/06/11 01:24:33;;;;;;;7.65;6.85;;;21.00;57.90;;;;;;5079209;28;20583;-80
2021/06/11 01:27:00;;;;;;;7.20;6.50;;;21.00;57.90;;;;;;5077954;28;20179;-80
2021/06/11 01:29:28;;;;;;;7.90;7.10;;;21.00;58.60;;;;;;5077767;28;20188;-80
2021/06/11 01:31:57;;;;;;;8.02;7.18;;;21.00;57.90;;;;;;5114562;28;20184;-80
2021/06/11 01:34:29;;;;;;;7.85;7.05;;;21.00;58.00;;;;;;5116855;28;20217;-79
2021/06/11 01:36:57;;;;;;;7.00;6.30;;;21.00;58.00;;;;;;5117742;28;20238;-81
2021/06/11 01:39:23;;;;;;;8.48;7.35;;;21.00;58.10;;;;;;5099596;28;20236;-81
2021/06/11 01:41:50;;;;;;;8.00;7.07;;;21.00;58.00;;;;;;5116219;28;20231;-80
2021/06/11 01:44:17;;;;;;;7.60;6.90;;;21.00;58.10;;;;;;5116040;28;20171;-80
2021/06/11 01:46:45;;;;;;;7.10;6.35;;;21.00;58.10;;;;;;5098289;28;20269;-80
2021/06/11 01:49:12;;;;;;;7.50;6.70;;;21.00;58.10;;;;;;5081271;28;20183;-80
2021/06/11 01:51:37;;;;;;;7.68;6.88;;;20.90;58.10;;;;;;5064340;28;20235;-80
2021/06/11 01:54:05;;;;;;;7.78;6.97;;;21.00;58.10;;;;;;5116119;28;20607;-80
2021/06/11 01:56:31;;;;;;;7.47;6.55;;;21.00;58.10;;;;;;5116025;28;20183;-80
2021/06/11 01:58:58;;;;;;;7.50;6.70;;;21.00;58.10;;;;;;5117131;28;20518;-80
2021/06/11 02:01:24;;;;;;;7.80;6.90;;;21.00;58.10;;;;;;5117053;28;20168;-80
2021/06/11 02:03:51;;;;;;;7.70;6.90;;;20.90;58.10;;;;;;5117105;28;20149;-80
2021/06/11 02:06:18;;;;;;;7.55;6.78;;;20.90;58.10;;;;;;5117025;28;20159;-80
2021/06/11 02:08:45;;;;;;;7.72;6.93;;;20.90;58.20;;;;;;5115895;28;20259;-81
2021/06/11 02:11:11;;;;;;;7.70;6.90;;;20.90;58.20;;;;;;5115746;28;20160;-80
2021/06/11 02:13:39;;;;;;;7.35;6.53;;;20.90;58.20;;;;;;5115769;28;20160;-80
2021/06/11 02:16:06;;;;;;;7.20;6.50;;;20.90;58.20;;;;;;5116804;28;20674;-81
2021/06/11 02:18:33;;;;;;;7.78;6.97;;;20.90;58.20;;;;;;5116782;28;20148;-80
2021/06/11 02:20:59;;;;;;;7.95;7.07;;;20.90;58.20;;;;;;5116969;28;20156;-80
2021/06/11 02:23:25;;;;;;;7.47;6.75;;;20.90;58.20;;;;;;5115890;28;20160;-80
2021/06/11 02:25:51;;;;;;;7.10;6.38;;;20.90;58.20;;;;;;5116877;28;20153;-80
2021/06/11 02:28:17;;;;;;;7.28;6.57;;;20.90;58.30;;;;;;5115358;28;20641;-80
2021/06/11 02:30:44;;;;;;;8.07;7.05;;;20.90;58.20;;;;;;5116681;28;20618;-80
2021/06/11 02:33:12;;;;;;;7.93;7.13;;;20.90;58.20;;;;;;5098206;28;20194;-80
2021/06/11 02:35:38;;;;;;;7.85;6.88;;;20.90;58.20;;;;;;5098648;28;20155;-80
2021/06/11 02:38:05;;;;;;;7.53;6.72;;;20.90;58.30;;;;;;5097413;28;20191;-80
2021/06/11 02:40:31;;;;;;;8.68;7.50;;;20.90;58.30;;;;;;5116382;28;20176;-80
2021/06/11 02:43:02;;;;;;;8.38;7.47;;;20.80;59.00;;;;;;5115315;28;20153;-80
2021/06/11 02:45:31;;;;;;;8.27;7.38;;;20.90;58.30;;;;;;5097979;28;20176;-81
2021/06/11 02:48:09;;;;;;;8.10;7.13;;;20.90;58.40;;;;;;5116177;28;20149;-80
2021/06/11 02:50:38;;;;;;;7.88;7.00;;;20.90;58.40;;;;;;5081570;28;20543;-80
2021/06/11 02:53:04;;;;;;;7.00;6.30;;;20.90;58.40;;;;;;5114639;28;20743;-81
2021/06/11 02:55:32;;;;;;;7.50;6.70;;;20.90;58.40;;;;;;5097967;28;20163;-80
2021/06/11 02:58:14;;;;;;;7.43;6.70;;;20.90;58.30;;;;;;5115881;28;20192;-80
2021/06/11 03:00:41;;;;;;;8.02;6.85;;;20.90;58.40;;;;;;5098512;28;20214;-80
2021/06/11 03:03:21;;;;;;;7.85;7.05;;;20.90;58.30;;;;;;5115920;28;20231;-80
2021/06/11 03:05:50;;;;;;;8.05;7.15;;;20.80;58.30;;;;;;5115177;28;20152;-80
2021/06/11 03:08:18;;;;;;;7.60;6.80;;;20.80;58.40;;;;;;5114859;28;20195;-80
2021/06/11 03:10:46;;;;;;;7.65;6.85;;;20.90;58.40;;;;;;5097794;28;20171;-80
2021/06/11 03:13:12;;;;;;;7.53;6.72;;;20.90;58.40;;;;;;5114662;28;20197;-80
2021/06/11 03:15:37;;;;;;;7.57;6.78;;;20.80;58.40;;;;;;5114389;28;20603;-80
2021/06/11 03:18:08;;;;;;;7.85;7.05;;;20.80;58.40;;;;;;5115618;28;20152;-80
2021/06/11 03:20:37;;;;;;;7.70;6.82;;;20.80;58.40;;;;;;5115671;28;20518;-80
2021/06/11 03:23:19;;;;;;;8.80;7.40;;;20.90;58.50;;;;;;5115613;28;20151;-79
2021/06/11 03:25:51;;;;;;;8.00;7.20;;;20.80;58.40;;;;;;5115031;28;20247;-80
2021/06/11 03:28:22;;;;;;;8.07;7.20;;;20.80;58.50;;;;;;5115413;28;20521;-80
2021/06/11 03:30:51;;;;;;;8.15;7.35;;;20.90;58.50;;;;;;5115370;28;20155;-80
2021/06/11 03:33:20;;;;;;;8.50;7.22;;;20.90;58.50;;;;;;5115418;28;20152;-80
2021/06/11 03:35:49;;;;;;;8.30;7.28;;;20.90;58.50;;;;;;5115532;28;20164;-81
2021/06/11 03:38:17;;;;;;;7.47;6.70;;;20.80;58.40;;;;;;5097087;28;20160;-79
2021/06/11 03:40:43;;;;;;;7.88;7.07;;;20.80;58.50;;;;;;5114168;28;20231;-79
2021/06/11 03:43:09;;;;;;;7.95;7.15;;;20.90;58.40;;;;;;5115232;28;20641;-80
2021/06/11 03:45:35;;;;;;;8.20;6.88;;;20.90;58.40;;;;;;5097181;28;20572;-80
2021/06/11 03:48:03;;;;;;;7.90;7.10;;;20.90;58.40;;;;;;5115354;28;20264;-80
2021/06/11 03:50:30;;;;;;;8.48;7.57;;;20.90;58.40;;;;;;5114036;28;20199;-80
2021/06/11 03:52:58;;;;;;;7.75;6.95;;;20.90;58.40;;;;;;5114756;28;20230;-80
2021/06/11 03:55:26;;;;;;;7.82;7.03;;;20.90;58.40;;;;;;5114755;28;20168;-80
2021/06/11 03:57:55;;;;;;;7.47;6.68;;;20.90;58.40;;;;;;5113606;28;20303;-79
2021/06/11 04:00:21;;;;;;;8.52;7.32;;;20.90;58.30;;;;;;5096880;28;20164;-80
2021/06/11 04:02:47;;;;;;;7.88;7.07;;;20.90;58.30;;;;;;5113612;28;20176;-80
2021/06/11 04:05:13;;;;;;;8.10;7.15;;;20.90;58.30;;;;;;5114840;28;20607;-81
2021/06/11 04:07:44;;;;;;;7.90;7.10;;;20.90;58.40;;;;;;5114719;28;20167;-80
2021/06/11 04:10:15;;;;;;;7.93;7.13;;;20.90;58.30;;;;;;5113494;28;20148;-79
2021/06/11 04:12:51;;;;;;;7.85;6.80;;;21.00;58.30;;;;;;5114867;28;20175;-80
2021/06/11 04:15:17;;;;;;;7.85;6.60;;;20.90;58.30;;;;;;5114590;28;20163;-80
2021/06/11 04:17:46;;;;;;;7.80;7.00;;;21.00;58.40;;;;;;5114445;28;20187;-80
2021/06/11 04:20:14;;;;;;;7.88;7.07;;;21.00;58.20;;;;;;5113460;28;20148;-80
2021/06/11 04:22:42;;;;;;;7.65;6.85;;;21.00;58.10;;;;;;5113486;28;20159;-80
2021/06/11 04:25:08;;;;;;;8.00;7.20;;;21.10;58.20;;;;;;5113351;28;20235;-81
2021/06/11 04:27:35;;;;;;;7.60;6.80;;;21.10;58.00;;;;;;5113085;28;20633;-80
2021/06/11 04:30:01;;;;;;;6.80;6.18;;;21.10;58.10;;;;;;5113137;28;20179;-79
2021/06/11 04:32:28;;;;;;;7.80;6.82;;;21.20;58.00;;;;;;5096445;28;20245;-80
2021/06/11 04:34:55;;;;;;;7.32;6.53;;;21.20;57.90;;;;;;5113272;28;20166;-80
2021/06/11 04:37:20;;;;;;;7.60;6.80;;;21.20;57.90;;;;;;5096131;28;20538;-80
2021/06/11 04:39:46;;;;;;;7.95;7.00;;;21.20;57.90;;;;;;5112944;28;20615;-80
2021/06/11 04:42:12;;;;;;;7.90;6.97;;;21.20;57.80;;;;;;5112764;28;20156;-80
2021/06/11 04:44:38;;;;;;;7.30;6.60;;;21.30;57.70;;;;;;5114594;28;20156;-80
2021/06/11 04:47:03;;;;;;;6.95;6.35;;;21.20;57.90;;;;;;5113986;28;20615;-80
2021/06/11 04:49:29;;;;;;;7.63;6.80;;;21.30;57.90;;;;;;5113909;28;20548;-80
2021/06/11 04:51:55;;;;;;;7.68;6.97;;;21.30;57.60;;;;;;5112587;28;20695;-80
2021/06/11 04:54:20;;;;;;;8.80;7.00;;;21.40;57.60;;;;;;5113842;28;20160;-80
2021/06/11 04:56:46;;;;;;;7.65;6.82;;;21.30;57.50;;;;;;5078816;28;20196;-80
2021/06/11 04:59:12;;;;;;;7.00;6.30;;;21.30;57.70;;;;;;5113833;28;20234;-80
2021/06/11 05:01:38;;;;;;;7.32;6.55;;;21.30;57.60;;;;;;5113747;28;20611;-80
2021/06/11 05:04:03;;;;;;;7.93;7.13;;;21.30;57.80;;;;;;5112624;28;20163;-80
2021/06/11 05:06:29;;;;;;;7.15;6.45;;;21.30;57.80;;;;;;5111967;28;20225;-80
2021/06/11 05:08:55;;;;;;;8.13;7.05;;;21.20;58.10;;;;;;5112554;28;20686;-81
2021/06/11 05:11:21;;;;;;;7.15;6.40;;;21.20;58.10;;;;;;5095669;28;20606;-80
2021/06/11 05:13:47;;;;;;;7.05;6.35;;;21.30;58.20;;;;;;5112407;28;20213;-80
2021/06/11 05:16:13;;;;;;;7.72;6.93;;;21.20;57.90;;;;;;5112466;28;20176;-80
2021/06/11 05:18:38;;;;;;;7.15;6.45;;;21.20;58.10;;;;;;5113859;28;20157;-80
2021/06/11 05:21:04;;;;;;;6.97;6.18;;;21.30;58.00;;;;;;5112568;28;20199;-81
2021/06/11 05:23:30;;;;;;;7.53;6.72;;;21.30;57.90;;;;;;5112515;28;20148;-80
2021/06/11 05:25:56;;;;;;;7.22;6.53;;;21.20;58.00;;;;;;5113176;28;20163;-81
2021/06/11 05:28:22;;;;;;;7.50;6.00;;;21.30;57.90;;;;;;5113522;28;20171;-78
2021/06/11 05:30:51;;;;;;;7.13;6.43;;;21.20;57.90;;;;;;5112652;28;20148;-80
2021/06/11 05:33:17;;;;;;;7.13;6.43;;;21.30;57.80;;;;;;5113415;28;20179;-80
2021/06/11 05:35:43;;;;;;;7.40;6.68;;;21.30;57.90;;;;;;5113721;28;20208;-80
2021/06/11 05:38:11;;;;;;;6.97;6.28;;;21.20;58.10;;;;;;5113689;28;20239;-81
2021/06/11 05:40:36;;;;;;;6.90;6.20;;;21.30;58.30;;;;;;5113400;28;20630;-80
2021/06/11 05:43:02;;;;;;;7.65;6.55;;;21.20;58.00;;;;;;5095288;28;20156;-81
2021/06/11 05:45:30;;;;;;;7.15;6.40;;;21.20;58.60;;;;;;5113598;28;20487;-80
2021/06/11 05:47:56;;;;;;;7.45;6.60;;;21.20;58.50;;;;;;5095698;28;20164;-81
2021/06/11 05:50:22;;;;;;;7.32;6.45;;;21.20;58.60;;;;;;5103019;28;20222;-80
2021/06/11 05:52:47;;;;;;;7.10;6.40;;;21.20;58.30;;;;;;5092623;28;20208;-81
2021/06/11 05:55:14;;;;;;;7.15;6.45;;;21.20;58.30;;;;;;5092640;28;20530;-80
2021/06/11 05:57:41;;;;;;;7.05;6.28;;;21.20;58.20;;;;;;5092717;28;20189;-80
2021/06/11 06:00:09;;;;;;;7.60;6.80;;;21.20;58.70;;;;;;5091552;28;20157;-81
2021/06/11 06:02:34;;;;;;;8.18;6.55;;;21.20;58.60;;;;;;5092359;28;20265;-80
2021/06/11 06:05:00;;;;;;;7.28;6.32;;;21.20;58.30;;;;;;5092128;28;20708;-80
2021/06/11 06:07:26;;;;;;;7.88;6.25;;;21.20;58.00;;;;;;5091229;28;20188;-83
2021/06/11 06:09:52;;;;;;;7.60;6.30;;;21.20;58.20;;;;;;5092971;28;20160;-80
2021/06/11 06:12:18;;;;;;;6.70;5.97;;;21.20;58.30;;;;;;5092591;28;20456;-79
2021/06/11 06:14:44;;;;;;;6.93;5.68;;;21.30;58.90;;;;;;5091604;28;20318;-80
2021/06/11 06:17:10;;;;;;;7.13;6.18;;;21.30;58.40;;;;;;5093338;28;20683;-81
2021/06/11 06:19:37;;;;;;;6.57;5.97;;;21.30;58.10;;;;;;5096351;28;20632;-80
2021/06/11 06:22:03;;;;;;;6.75;6.05;;;21.40;57.90;;;;;;5096587;28;20156;-81
2021/06/11 06:24:29;;;;;;;9.73;6.53;;;21.30;57.80;;;;;;5096848;28;20564;-80
2021/06/11 06:26:54;;;;;;;7.88;6.43;;;21.30;58.20;;;;;;5096665;28;20169;-80
2021/06/11 06:29:20;;;;;;;7.63;6.55;;;21.40;58.00;;;;;;5095539;28;20632;-80
2021/06/11 06:31:47;;;;;;;6.95;6.25;;;21.40;57.90;;;;;;5095931;28;20906;-81
2021/06/11 06:34:13;;;;;;;9.18;6.72;;;21.50;57.80;;;;;;5095204;28;20168;-80
2021/06/11 06:36:38;;;;;;;6.93;6.22;;;21.50;57.60;;;;;;5095765;28;20185;-78
2021/06/11 06:39:07;;;;;;;7.15;6.18;;;21.50;57.50;;;;;;5094770;28;20159;-79
2021/06/11 06:41:33;;;;;;;8.73;5.78;;;21.50;57.90;;;;;;5094487;28;20217;-80
2021/06/11 06:43:59;;;;;;;10.48;6.20;;;21.50;58.00;;;;;;5095966;28;20515;-78
2021/06/11 06:46:24;;;;;;;7.65;6.57;;;21.50;58.20;;;;;;5077897;28;20171;-80
2021/06/11 06:48:50;;;;;;;9.50;6.50;;;21.50;57.90;;;;;;5095739;28;20164;-79
2021/06/11 06:51:17;;;;;;;9.70;6.30;;;21.50;57.80;;;;;;5094014;28;20214;-78
2021/06/11 06:53:44;;;;;;;10.52;6.50;;;21.50;57.80;;;;;;5095488;28;20212;-78
2021/06/11 06:56:10;;;;;;;11.02;6.57;;;21.40;57.90;;;;;;5094546;28;20192;-77
2021/06/11 06:58:36;;;;;;;25.45;7.10;;;21.40;58.00;;;;;;5095675;28;20165;-79
2021/06/11 07:01:03;;;;;;;17.75;6.53;;;21.40;58.10;;;;;;5095487;28;20183;-77
2021/06/11 07:03:30;;;;;;;22.52;6.40;;;21.40;58.30;;;;;;5093560;28;20167;-78
2021/06/11 07:05:57;;;;;;;32.88;8.02;;;21.40;58.20;;;;;;5094878;28;20164;-78
2021/06/11 07:08:26;;;;;;;34.22;7.60;;;21.50;58.10;;;;;;5105935;28;20165;-77
2021/06/11 07:10:51;;;;;;;28.67;7.85;;;21.50;58.10;;;;;;5098118;28;20169;-78
2021/06/11 07:13:17;;;;;;;26.88;7.65;;;21.50;57.90;;;;;;5094390;28;20209;-77
2021/06/11 07:15:43;;;;;;;32.88;7.68;;;21.50;58.00;;;;;;5105936;28;20191;-79
2021/06/11 07:18:09;;;;;;;21.15;7.05;;;21.50;58.30;;;;;;5113328;28;20690;-79
2021/06/11 07:20:34;;;;;;;24.15;6.82;;;21.50;58.10;;;;;;5096521;28;20553;-78
2021/06/11 07:23:02;;;;;;;16.25;6.57;;;21.50;58.00;;;;;;5094686;28;20259;-79
2021/06/11 07:25:30;;;;;;;18.08;6.78;;;21.50;58.00;;;;;;5091712;28;20249;-79
2021/06/11 07:27:56;;;;;;;18.02;6.32;;;21.50;58.00;;;;;;5074121;28;20281;-81
2021/06/11 07:30:22;;;;;;;19.08;6.35;;;21.70;57.90;;;;;;5092783;28;20235;-80
2021/06/11 07:32:49;;;;;;;13.52;6.90;;;21.60;57.80;;;;;;5096218;28;20232;-80
2021/06/11 07:35:15;;;;;;;17.55;7.07;;;21.60;58.00;;;;;;5095036;28;20640;-81
2021/06/11 07:37:42;;;;;;;16.25;6.45;;;21.60;57.80;;;;;;5094562;28;20193;-81
2021/06/11 07:40:09;;;;;;;21.20;7.20;;;21.60;57.80;;;;;;5093610;28;20153;-81
2021/06/11 07:42:35;;;;;;;10.50;6.60;;;21.50;57.90;;;;;;5093100;28;20184;-81
2021/06/11 07:45:01;;;;;;;14.65;7.35;;;21.60;58.00;;;;;;5092705;28;20243;-81
2021/06/11 07:47:27;;;;;;;14.23;7.05;;;21.70;57.70;;;;;;5092848;28;20435;-81
2021/06/11 07:49:53;;;;;;;12.07;6.60;;;21.60;57.90;;;;;;5091575;28;20854;-80
2021/06/11 07:52:19;;;;;;;14.80;6.70;;;21.70;57.70;;;;;;5090867;28;20302;-81
2021/06/11 07:54:45;;;;;;;13.07;6.75;;;21.70;57.60;;;;;;5092430;28;20173;-80
2021/06/11 07:57:11;;;;;;;16.30;6.68;;;21.70;58.00;;;;;;5092863;28;20532;-82
2021/06/11 07:59:37;;;;;;;14.45;6.85;;;21.80;57.60;;;;;;5092971;28;20161;-80
2021/06/11 08:02:03;;;;;;;11.57;6.65;;;21.90;57.50;;;;;;5093061;28;20235;-80
2021/06/11 08:04:31;;;;;;;14.20;6.85;;;21.80;57.50;;;;;;5094368;28;20232;-80
2021/06/11 08:06:57;;;;;;;9.32;6.50;;;21.80;57.70;;;;;;5094391;28;20144;-81
2021/06/11 08:09:25;;;;;;;9.63;6.70;;;21.80;57.80;;;;;;5094713;28;20216;-83
2021/06/11 08:11:51;;;;;;;13.10;6.90;;;21.90;57.20;;;;;;5094468;28;20164;-79
2021/06/11 08:14:17;;;;;;;13.05;7.60;;;21.90;57.40;;;;;;5094161;28;20534;-81
2021/06/11 08:16:43;;;;;;;13.20;7.10;;;21.90;57.40;;;;;;5093270;28;20200;-80
2021/06/11 08:19:08;;;;;;;15.50;7.15;;;21.80;57.40;;;;;;5092889;28;20172;-81
2021/06/11 08:21:35;;;;;;;16.35;7.53;;;21.80;57.50;;;;;;5094028;28;20149;-80
2021/06/11 08:24:01;;;;;;;10.95;7.38;;;21.70;57.60;;;;;;5094047;28;20279;-80
2021/06/11 08:26:26;;;;;;;8.82;6.78;;;21.70;57.90;;;;;;5093755;28;20246;-82
2021/06/11 08:28:52;;;;;;;13.98;7.13;;;21.70;57.90;;;;;;5093699;28;20195;-81
2021/06/11 08:31:18;;;;;;;14.18;7.72;;;21.80;57.70;;;;;;5093721;28;20157;-81
2021/06/11 08:33:46;;;;;;;11.50;6.95;;;21.80;57.40;;;;;;5092312;28;20165;-82
2021/06/11 08:36:12;;;;;;;14.35;8.40;;;21.80;57.80;;;;;;5094243;28;20640;-81
2021/06/11 08:38:37;;;;;;;12.45;7.50;;;21.80;57.60;;;;;;5092795;28;20156;-81
2021/06/11 08:41:03;;;;;;;18.60;8.45;;;21.90;57.70;;;;;;5054899;28;20205;-81
2021/06/11 08:43:29;;;;;;;11.30;7.85;;;21.90;57.60;;;;;;5089074;28;20243;-80
2021/06/11 08:45:55;;;;;;;17.73;8.48;;;22.00;57.50;;;;;;5093897;28;20218;-80
2021/06/11 08:48:22;;;;;;;17.80;7.60;;;22.00;57.20;;;;;;5093650;28;20153;-80
2021/06/11 08:50:48;;;;;;;13.02;8.32;;;21.90;57.50;;;;;;5093696;28;20211;-80
2021/06/11 08:53:13;;;;;;;13.02;8.18;;;22.00;57.30;;;;;;5091934;28;20617;-79
2021/06/11 08:55:39;;;;;;;17.45;8.50;;;21.90;57.40;;;;;;5093322;28;20181;-80
2021/06/11 08:58:05;;;;;;;17.50;8.73;;;22.00;57.50;;;;;;5093435;28;20191;-80
2021/06/11 09:00:32;;;;;;;13.73;8.05;;;21.90;57.60;;;;;;5093363;28;20196;-81
2021/06/11 09:03:12;;;;;;;14.85;8.88;;;21.90;58.30;;;;;;5092158;28;20507;-79
2021/06/11 09:05:39;;;;;;;11.30;7.53;;;21.80;57.80;;;;;;5096226;28;20561;-79
2021/06/11 09:08:22;;;;;;;11.40;8.02;;;22.00;58.20;;;;;;5091897;28;20173;-80
2021/06/11 09:10:50;;;;;;;15.60;7.80;;;22.00;57.50;;;;;;5092923;28;20176;-79
2021/06/11 09:13:31;;;;;;;13.70;8.73;;;22.00;57.60;;;;;;5076533;28;20202;-79
2021/06/11 09:16:13;;;;;;;14.18;8.60;;;22.00;57.60;;;;;;5092768;28;20231;-80
2021/06/11 09:18:51;;;;;;;14.63;9.18;;;22.00;57.50;;;;;;5092241;28;20180;-80
2021/06/11 09:21:27;;;;;;;12.88;7.70;;;22.10;57.60;;;;;;5093058;28;20149;-81
2021/06/11 09:24:21;;;;;;;11.75;8.00;;;22.20;57.60;;;;;;5093424;28;20186;-81
2021/06/11 09:27:07;;;;;;;13.43;8.32;;;22.30;56.90;;;;;;5094428;28;20165;-81
2021/06/11 09:29:36;;;;;;;11.98;8.48;;;22.30;57.00;;;;;;5093491;28;20160;-80
2021/06/11 09:32:26;;;;;;;12.52;7.93;;;22.30;56.90;;;;;;5093523;28;20752;-81
2021/06/11 09:34:56;;;;;;;16.00;8.60;;;22.40;56.80;;;;;;5092130;28;20180;-79
2021/06/11 09:37:26;;;;;;;16.27;9.02;;;22.40;56.70;;;;;;5093031;28;20176;-81
2021/06/11 09:39:55;;;;;;;13.40;8.40;;;22.20;56.90;;;;;;5099285;28;20232;-80
2021/06/11 09:42:23;;;;;;;14.05;9.48;;;22.20;56.90;;;;;;5099077;28;20187;-80
2021/06/11 09:44:53;;;;;;;15.90;8.98;;;22.20;57.10;;;;;;5096574;28;20190;-80
2021/06/11 09:47:30;;;;;;;14.07;8.50;;;22.30;57.20;;;;;;5099944;28;20183;-80
2021/06/11 09:49:55;;;;;;;17.83;8.63;;;22.30;57.20;;;;;;5099169;28;20168;-81
2021/06/11 09:52:21;;;;;;;10.98;8.50;;;22.30;57.10;;;;;;5099773;28;20710;-80
2021/06/11 09:54:47;;;;;;;11.50;8.43;;;22.40;56.90;;;;;;5101884;28;20625;-80
2021/06/11 09:57:22;;;;;;;9.43;8.20;;;22.40;56.80;;;;;;5104403;28;20188;-80
2021/06/11 09:59:48;;;;;;;12.38;8.73;;;22.50;56.60;;;;;;5105205;28;20157;-80
2021/06/11 10:02:15;;;;;;;12.25;8.40;;;22.40;56.90;;;;;;5103786;28;20149;-80
2021/06/11 10:04:42;;;;;;;11.20;9.48;;;22.40;56.90;;;;;;5085985;28;20249;-80
2021/06/11 10:07:11;;;;;;;13.30;8.10;;;22.40;56.70;;;;;;5085155;28;20201;-81
2021/06/11 10:09:36;;;;;;;11.68;8.82;;;22.40;56.80;;;;;;5101432;28;20164;-81
2021/06/11 10:12:02;;;;;;;14.15;9.18;;;22.40;56.90;;;;;;5101132;28;20153;-79
2021/06/11 10:14:29;;;;;;;12.80;9.48;;;22.30;57.00;;;;;;5104564;28;20157;-80
2021/06/11 10:16:54;;;;;;;11.55;9.40;;;22.40;56.90;;;;;;5100709;28;20215;-82
2021/06/11 10:19:21;;;;;;;14.00;9.32;;;22.30;57.10;;;;;;5103375;28;20168;-81
2021/06/11 10:21:47;;;;;;;13.55;9.68;;;22.20;57.30;;;;;;5101552;28;20153;-82
2021/06/11 10:24:15;;;;;;;10.45;8.65;;;22.20;57.50;;;;;;5102385;28;20160;-80
2021/06/11 10:26:41;;;;;;;14.13;9.20;;;22.20;57.50;;;;;;5104529;28;20174;-80
2021/06/11 10:29:18;;;;;;;10.25;8.95;;;22.10;57.40;;;;;;5103398;28;20161;-79
2021/06/11 10:31:44;;;;;;;17.13;9.25;;;22.20;57.60;;;;;;5104445;28;20157;-80
2021/06/11 10:34:10;;;;;;;12.95;9.60;;;22.20;57.60;;;;;;5102991;28;20149;-80
2021/06/11 10:36:43;;;;;;;11.90;9.35;;;22.20;57.60;;;;;;5103810;28;20180;-82
2021/06/11 10:39:25;;;;;;;12.75;9.23;;;22.10;57.60;;;;;;5102484;28;20184;-80
2021/06/11 10:42:07;;;;;;;13.38;10.07;;;22.10;57.80;;;;;;5085523;28;20181;-81
2021/06/11 10:44:54;;;;;;;11.35;8.82;;;22.20;57.60;;;;;;5050960;28;20180;-80
2021/06/11 10:47:24;;;;;;;15.75;9.93;;;22.20;57.60;;;;;;5088211;28;20179;-80
2021/06/11 10:50:01;;;;;;;12.13;8.90;;;22.20;57.40;;;;;;5103720;28;20203;-81
2021/06/11 10:52:46;;;;;;;15.07;10.02;;;22.20;57.60;;;;;;5102451;28;20253;-80
2021/06/11 10:55:35;;;;;;;10.48;9.38;;;22.20;57.80;;;;;;5100486;28;20156;-81
2021/06/11 10:58:19;;;;;;;10.32;9.07;;;22.10;57.50;;;;;;5101936;28;20670;-82
2021/06/11 11:00:45;;;;;;;12.43;9.55;;;22.20;57.50;;;;;;5081070;28;20206;-81
2021/06/11 11:03:26;;;;;;;12.43;9.35;;;22.20;57.70;;;;;;5100001;28;20153;-79
2021/06/11 11:05:52;;;;;;;13.20;9.35;;;22.30;57.40;;;;;;5101461;28;20668;-82
2021/06/11 11:08:18;;;;;;;12.02;9.15;;;22.20;57.60;;;;;;5101694;28;20192;-83
2021/06/11 11:10:51;;;;;;;10.98;9.27;;;22.30;57.70;;;;;;5103591;28;20180;-80
2021/06/11 11:13:25;;;;;;;10.57;8.02;;;22.30;57.60;;;;;;5103944;28;20192;-81
2021/06/11 11:15:55;;;;;;;12.73;9.00;;;22.30;57.20;;;;;;5104310;28;20210;-81
2021/06/11 11:18:42;;;;;;;11.55;9.95;;;22.30;57.60;;;;;;5104380;28;20207;-80
2021/06/11 11:21:30;;;;;;;12.32;9.52;;;22.20;57.60;;;;;;5107228;28;20164;-81
2021/06/11 11:24:02;;;;;;;15.00;9.52;;;22.20;57.80;;;;;;5089664;28;20180;-80
2021/06/11 11:26:48;;;;;;;12.95;9.38;;;22.30;57.70;;;;;;5071632;28;20180;-79
2021/06/11 11:29:16;;;;;;;11.00;9.25;;;22.30;57.80;;;;;;5106730;28;20161;-80
2021/06/11 11:31:44;;;;;;;13.15;8.68;;;22.20;57.60;;;;;;5105034;28;20199;-80
2021/06/11 11:34:14;;;;;;;15.18;9.20;;;22.30;57.30;;;;;;5101715;28;20197;-81
2021/06/11 11:36:40;;;;;;;10.57;9.23;;;22.30;57.30;;;;;;5083618;28;20219;-82
2021/06/11 11:39:09;;;;;;;12.85;9.73;;;22.30;57.60;;;;;;5083658;28;20602;-82
2021/06/11 11:41:35;;;;;;;11.98;9.63;;;22.30;57.50;;;;;;5101369;28;20157;-81
2021/06/11 11:44:02;;;;;;;11.43;8.93;;;22.30;57.40;;;;;;5101496;28;20152;-79
2021/06/11 11:46:28;;;;;;;10.82;9.20;;;22.30;57.60;;;;;;5101108;28;20149;-82
2021/06/11 11:48:54;;;;;;;9.30;7.85;;;22.30;57.40;;;;;;5099903;28;20160;-79
2021/06/11 11:51:20;;;;;;;11.95;8.40;;;22.30;57.60;;;;;;5099557;28;21097;-82
2021/06/11 11:53:46;;;;;;;10.88;8.80;;;22.40;57.40;;;;;;5080480;28;20265;-84
2021/06/11 11:56:12;;;;;;;10.57;9.23;;;22.40;57.30;;;;;;5105340;28;20157;-77
2021/06/11 11:58:39;;;;;;;12.10;9.20;;;22.50;57.10;;;;;;5085274;28;20156;-80
2021/06/11 12:01:05;;;;;;;9.98;8.55;;;22.50;57.00;;;;;;5083930;28;20171;-79
2021/06/11 12:03:31;;;;;;;11.13;8.50;;;22.50;56.80;;;;;;5100134;28;20164;-80
2021/06/11 12:05:58;;;;;;;9.05;8.15;;;22.50;56.90;;;;;;5068870;28;20255;-81
2021/06/11 12:08:23;;;;;;;9.52;8.25;;;22.60;56.80;;;;;;5097195;28;20294;-81
2021/06/11 12:10:50;;;;;;;10.30;9.02;;;22.60;56.60;;;;;;5097511;28;20168;-80
2021/06/11 12:13:21;;;;;;;9.90;7.97;;;22.60;56.70;;;;;;5097966;28;20156;-80
2021/06/11 12:15:53;;;;;;;9.95;8.95;;;22.60;56.70;;;;;;5095701;28;20248;-80
2021/06/11 12:18:23;;;;;;;10.10;8.95;;;22.70;56.50;;;;;;5078371;28;20228;-83
2021/06/11 12:20:53;;;;;;;9.57;8.38;;;22.60;56.90;;;;;;5096066;28;20185;-79
2021/06/11 12:23:22;;;;;;;8.45;7.65;;;22.60;56.60;;;;;;5094379;28;20185;-81
2021/06/11 12:25:50;;;;;;;8.82;7.75;;;22.60;56.60;;;;;;5094587;28;20180;-82
2021/06/11 12:28:19;;;;;;;9.07;8.18;;;22.60;56.50;;;;;;5075425;28;20188;-81
2021/06/11 12:30:47;;;;;;;9.65;8.55;;;22.70;55.90;;;;;;5075979;28;20206;-81
2021/06/11 12:33:17;;;;;;;10.52;8.70;;;22.90;56.00;;;;;;5058311;28;20713;-81
2021/06/11 12:35:47;;;;;;;9.65;8.65;;;22.90;55.90;;;;;;5092385;28;20596;-82
2021/06/11 12:38:16;;;;;;;9.18;8.23;;;22.80;56.00;;;;;;5092329;28;20212;-78
2021/06/11 12:40:45;;;;;;;10.20;8.48;;;22.70;56.30;;;;;;5092261;28;20592;-83
2021/06/11 12:43:17;;;;;;;8.80;7.90;;;22.70;56.70;;;;;;5091922;28;20188;-81
2021/06/11 12:45:43;;;;;;;9.88;8.82;;;22.80;55.50;;;;;;5091757;28;20647;-81
2021/06/11 12:48:15;;;;;;;9.23;8.27;;;22.80;56.20;;;;;;5058463;28;20555;-81